createdAt,value
2018-10-17T00:03:19.413Z,9.1
2018-10-17T00:09:10.349Z,5.73
2018-10-17T00:15:01.226Z,6.07
2018-10-17T00:20:52.091Z,5.59
2018-10-17T00:26:42.982Z,5.41
2018-10-17T00:32:33.889Z,9.02
2018-10-17T00:38:24.753Z,7.81
2018-10-17T00:44:15.637Z,10.63
2018-10-17T00:50:06.539Z,12.4
2018-10-17T00:55:57.445Z,13.44
2018-10-17T01:01:48.315Z,12.71
2018-10-17T01:07:39.205Z,9.46
2018-10-17T01:13:30.081Z,14.03
2018-10-17T01:19:21.030Z,11.83
2018-10-17T01:25:11.877Z,11.65
2018-10-17T01:31:02.794Z,19.19
2018-10-17T01:36:53.708Z,9.55
2018-10-17T01:42:44.581Z,12.12
2018-10-17T01:48:35.411Z,9.58
2018-10-17T01:54:26.310Z,8.09
2018-10-17T02:00:17.219Z,9.1
2018-10-17T02:06:08.099Z,8.24
2018-10-17T02:11:58.970Z,13.8
2018-10-17T02:17:49.856Z,11.81
2018-10-17T02:23:40.757Z,8.97
2018-10-17T02:29:31.655Z,11.39
2018-10-17T02:35:22.530Z,8.51
2018-10-17T02:41:13.533Z,19.45
2018-10-17T02:47:04.421Z,11.5
2018-10-17T02:52:55.233Z,10.02
2018-10-17T02:58:46.065Z,7.11
2018-10-17T03:04:37.011Z,7.01
2018-10-17T03:10:27.869Z,7.17
2018-10-17T03:16:18.751Z,5.71
2018-10-17T03:22:09.646Z,5.2
2018-10-17T03:28:00.646Z,5.29
2018-10-17T03:33:51.389Z,5.56
2018-10-17T03:39:42.383Z,6.14
2018-10-17T03:45:33.205Z,6.85
2018-10-17T03:51:24.076Z,6.73
2018-10-17T03:57:14.951Z,4.68
2018-10-17T04:03:05.834Z,15.18
2018-10-17T04:08:56.683Z,7.49
2018-10-17T04:14:47.585Z,6.45
2018-10-17T04:20:38.463Z,7.41
2018-10-17T04:26:29.389Z,11.92
2018-10-17T04:32:20.252Z,4.13
2018-10-17T04:38:11.146Z,3.95
2018-10-17T04:44:02.002Z,5.27
2018-10-17T04:49:52.909Z,4.93
2018-10-17T04:55:43.752Z,7.21
2018-10-17T05:01:34.623Z,4.1
2018-10-17T05:07:25.647Z,9.88
2018-10-17T05:13:16.496Z,7.78
2018-10-17T05:19:07.358Z,7.7
2018-10-17T05:24:58.227Z,7.82
2018-10-17T05:30:49.084Z,7.28
2018-10-17T05:36:39.934Z,5.59
2018-10-17T05:42:30.811Z,8.17
2018-10-17T05:48:21.717Z,7.49
2018-10-17T05:54:12.516Z,6.65
2018-10-17T06:00:03.681Z,17.93
2018-10-17T06:05:54.319Z,9.45
2018-10-17T06:11:45.210Z,7.78
2018-10-17T06:17:37.944Z,5.36
2018-10-17T06:29:20.062Z,6.28
2018-10-17T06:35:08.954Z,19.22
2018-10-17T06:40:59.648Z,8.28
2018-10-17T06:46:50.453Z,18.35
2018-10-17T06:52:41.359Z,21.85
2018-10-17T06:58:32.223Z,21.64
2018-10-17T07:04:23.150Z,19.14
2018-10-17T07:10:13.974Z,7.59
2018-10-17T07:16:04.905Z,15.39
2018-10-17T07:21:55.748Z,12.09
2018-10-17T07:27:46.667Z,15.49
2018-10-17T07:33:37.506Z,17.12
2018-10-17T07:39:28.395Z,16.3
2018-10-17T07:45:19.259Z,15.03
2018-10-17T07:51:10.129Z,21.16
2018-10-17T07:57:01.015Z,77.07
2018-10-17T08:02:51.866Z,64.82
2018-10-17T08:08:42.948Z,28.6
2018-10-17T08:14:33.627Z,23.75
2018-10-17T08:20:29.154Z,12.41
2018-10-17T08:26:15.414Z,40.1
2018-10-17T08:32:06.324Z,14.23
2018-10-17T08:37:57.267Z,10.83
2018-10-17T08:43:48.075Z,24.08
2018-10-17T08:49:38.958Z,50.66
2018-10-17T08:55:29.854Z,53.96
2018-10-17T09:01:20.739Z,47.51
2018-10-17T09:07:11.706Z,16.09
2018-10-17T09:13:02.509Z,27.93
2018-10-17T09:18:53.393Z,24.5
2018-10-17T09:24:44.292Z,39.49
2018-10-17T09:30:35.319Z,48.96
2018-10-17T09:36:26.135Z,39.89
2018-10-17T09:42:17.101Z,42.12
2018-10-17T09:48:07.929Z,28.85
2018-10-17T09:53:58.770Z,21.95
2018-10-17T09:59:49.645Z,18.41
2018-10-17T10:05:40.556Z,11.74
2018-10-17T10:11:31.455Z,14.36
2018-10-17T10:17:22.398Z,34.85
2018-10-17T10:23:13.337Z,40.03
2018-10-17T10:29:04.181Z,29.65
2018-10-17T10:34:55.065Z,30.05
2018-10-17T10:40:46.032Z,31.5
2018-10-17T10:46:36.863Z,42.03
2018-10-17T10:52:27.772Z,38.33
2018-10-17T10:58:18.824Z,19.04
2018-10-17T11:04:09.566Z,10.45
2018-10-17T11:10:00.463Z,19.51
2018-10-17T11:15:51.412Z,14.65
2018-10-17T11:21:42.322Z,11.57
2018-10-17T11:27:33.209Z,21.26
2018-10-17T11:33:24.086Z,17.48
2018-10-17T11:39:15.081Z,7.57
2018-10-17T11:45:05.937Z,23.65
2018-10-17T11:50:56.827Z,18.4
2018-10-17T11:56:47.733Z,19.77
2018-10-17T12:02:38.624Z,29.23
2018-10-17T12:08:29.549Z,12.07
2018-10-17T12:14:20.453Z,9.57
2018-10-17T12:20:11.310Z,13.44
2018-10-17T12:26:02.229Z,7.72
2018-10-17T12:31:53.199Z,9.03
2018-10-17T12:37:44.066Z,17.26
2018-10-17T12:43:34.938Z,15.75
2018-10-17T12:49:25.847Z,17.96
2018-10-17T12:55:16.828Z,19.55
2018-10-17T13:01:07.794Z,13.31
2018-10-17T13:06:58.713Z,19.66
2018-10-17T13:12:49.478Z,25.45
2018-10-17T13:18:40.419Z,16.23
2018-10-17T13:24:31.369Z,22.75
2018-10-17T13:30:22.193Z,15.38
2018-10-17T13:36:13.109Z,10.79
2018-10-17T13:42:04.106Z,10.49
2018-10-17T13:47:54.984Z,10.83
2018-10-17T13:53:45.828Z,9.85
2018-10-17T13:59:36.746Z,12
2018-10-17T14:05:27.679Z,12.27
2018-10-17T14:11:18.602Z,11.6
2018-10-17T14:17:09.463Z,11.74
2018-10-17T14:23:00.375Z,12.15
2018-10-17T14:28:51.324Z,12.79
2018-10-17T14:34:42.199Z,10.15
2018-10-17T14:40:33.152Z,13.8
2018-10-17T14:46:24.011Z,12.02
2018-10-17T14:52:14.964Z,13.35
2018-10-17T14:58:05.823Z,19.14
2018-10-17T15:03:56.781Z,15.38
2018-10-17T15:09:47.679Z,10.51
2018-10-17T15:15:38.582Z,11.09
2018-10-17T15:21:29.514Z,11.36
2018-10-17T15:27:20.407Z,14
2018-10-17T15:33:11.374Z,8.19
2018-10-17T15:39:02.216Z,10.38
2018-10-17T15:44:53.126Z,13.92
2018-10-17T15:50:44.021Z,18.19
2018-10-17T15:56:34.963Z,16.43
2018-10-17T16:02:25.927Z,12.35
2018-10-17T16:08:16.850Z,10.37
2018-10-17T16:14:07.749Z,10.65
2018-10-17T16:19:58.564Z,7.9
2018-10-17T16:25:49.498Z,21.29
2018-10-17T16:31:40.395Z,11.96
2018-10-17T16:37:31.290Z,8.8
2018-10-17T16:43:22.186Z,4.34
2018-10-17T16:49:13.132Z,5.07
2018-10-17T16:55:04.581Z,5.94
2018-10-17T17:00:54.920Z,4.61
2018-10-17T17:06:45.841Z,4.01
2018-10-17T17:12:36.739Z,4.69
2018-10-17T17:18:27.622Z,6.03
2018-10-17T17:24:18.559Z,5.44
2018-10-17T17:30:09.538Z,3.09
2018-10-17T17:36:00.474Z,4.41
2018-10-17T17:41:51.289Z,3.57
2018-10-17T17:47:42.152Z,3.32
2018-10-17T17:53:33.036Z,5.65
2018-10-17T17:59:23.999Z,2.97
2018-10-17T18:05:14.828Z,3
2018-10-17T18:11:05.749Z,4.56
2018-10-17T18:16:56.633Z,4.26
2018-10-17T18:22:47.582Z,5.06
2018-10-17T18:28:38.502Z,5.47
2018-10-17T18:34:29.306Z,6.43
2018-10-17T18:40:20.224Z,14.99
2018-10-17T18:46:11.108Z,5.94
2018-10-17T18:52:01.968Z,4.52
2018-10-17T18:57:52.920Z,7.53
2018-10-17T19:03:43.826Z,6.62
2018-10-17T19:09:34.694Z,7.71
2018-10-17T19:15:25.565Z,9.5
2018-10-17T19:21:16.548Z,8.63
2018-10-17T19:27:07.403Z,4.86
2018-10-17T19:32:58.235Z,4.75
2018-10-17T19:38:49.170Z,5.63
2018-10-17T19:44:40.017Z,6.18
2018-10-17T19:50:30.887Z,6
2018-10-17T19:56:21.793Z,5.26
2018-10-17T20:02:12.736Z,8.2
2018-10-17T20:08:03.539Z,8.07
2018-10-17T20:13:54.418Z,7.03
2018-10-17T20:19:45.322Z,9.3
2018-10-17T20:25:36.197Z,8.45
2018-10-17T20:31:27.095Z,6.99
2018-10-17T20:37:17.972Z,7.89
2018-10-17T20:43:08.900Z,8.06
2018-10-17T20:48:59.794Z,6.05
2018-10-17T20:54:50.599Z,9.5
2018-10-17T21:00:41.504Z,6
2018-10-17T21:06:32.467Z,8.94
2018-10-17T21:12:23.308Z,8.46
2018-10-17T21:18:14.285Z,6.5
2018-10-17T21:24:05.084Z,9.23
2018-10-17T21:29:55.939Z,6.64
2018-10-17T21:35:46.844Z,6.69
2018-10-17T21:41:37.739Z,6
2018-10-17T21:47:28.717Z,7.07
2018-10-17T21:53:19.531Z,8.3
2018-10-17T21:59:10.366Z,6.19
2018-10-17T22:05:01.266Z,8.36
2018-10-17T22:10:52.148Z,7.08
2018-10-17T22:16:43.027Z,8.38
2018-10-17T22:22:33.928Z,10.6
2018-10-17T22:28:24.857Z,11.07
2018-10-17T22:34:15.690Z,9.65
2018-10-17T22:40:06.573Z,5.68
2018-10-17T22:45:57.462Z,8.28
2018-10-17T22:51:48.360Z,5.63
2018-10-17T22:57:39.239Z,5.61
2018-10-17T23:03:30.119Z,4.26
2018-10-17T23:09:20.984Z,4.82
2018-10-17T23:15:11.888Z,4.97
2018-10-17T23:21:02.773Z,5.35
2018-10-17T23:26:53.626Z,5.15
2018-10-17T23:32:44.517Z,4.47
2018-10-17T23:38:35.419Z,5.22
2018-10-17T23:44:26.285Z,4.76
2018-10-17T23:50:17.273Z,7.5
2018-10-17T23:56:08.217Z,6.75
